KLFI/LFI METAR and TAF weather

Enter ICAO airport designator
Station Type Date Time Source
KLFI METAR 2019/06/26 04:56 UTC NOAA

KLFI 260456Z AUTO 24004KT 10SM BKN070 24/22 A2997 RMK AO2 SLP155 T02420222 403100236 $


Station Type Date Time Source
KLFI Decoded METAR 2019/06/26 04:56 UTC NOAA

Langley Air Force Base, VA, United States (KLFI) 37-05N 076-21W 6M
Jun 26, 2019 - 12:56 AM EDT / 2019.06.26 0456 UTC
Wind: from the WSW (240 degrees) at 5 MPH (4 KT):0
Visibility: 10 mile(s):0
Sky conditions: mostly cloudy
Temperature: 75.6 F (24.2 C)
Dew Point: 72.0 F (22.2 C)
Relative Humidity: 88%
Pressure (altimeter): 29.97 in. Hg (1014 hPa)
ob: KLFI 260456Z AUTO 24004KT 10SM BKN070 24/22 A2997 RMK AO2 SLP155 T02420222 403100236
cycle: 5

Station Type Date Time Source
KLFI TAF 2019/06/26 01:18 UTC NOAA

TAF KLFI 260100Z 2601/2707 VRB06KT 9999 SCT070 BKN250 QNH2994INS
BECMG 2607/2608 34010KT 9999 FEW045 SCT250 QNH2999INS
BECMG 2616/2617 VRB06KT 9999 SKC QNH3001INS
BECMG 2705/2706 23009KT 9999 FEW060 QNH3011INS TX26/2601Z TN22/2611Z

Example: see airport list